PWSweather.com
Personal Weather Stations
Station Observations
COONRAPIDS
Minneapolis, MN 55433

Minneapolis, MN 55433

Lat: 45.187721, Lon: -93.36828

Elevation: 898

Station Type: Davis Vantage Pro 2

Latest ConditionsUpdated 3:40:01 PM CDT Sunday, Mar 29, 2015
Currently Today's Max Today's Min Today's Average
Temperature 53.1°F11.7°C 53.1°F11.7°C 34.3°F1.3°C 39.8°F4.3°C
Dew Point 29.4°F-1.4°C 40.4°F4.7°C 19.4°F-7.0°C 30.1°F-1.1°C
Winds 4.3 mph NW6.9 kmh NW 11.5 mph NW18.5 kmh NW - 3.8 mph 6.1 kmh
Wind Gusts 12.0 mph19.3 kmh 30.0 mph48.3 kmh - -
Humidity 40% 87% 39% 70%
Pressure 29.69 in1005.4 mb 29.84 in1010.5 mb 29.47 in998.0 mb -
Precipitation - 0.24 in6.1 mm - -
Hour Temp Dew Point Humidity Winds Wind Gusts Pressure Precip Precip Rate Daily Precip Total
03:40 PM 53.1°F11.7°C 29.4°F-1.4°C 40% 4.3 mph NW6.9 kmh NW 12.0 mph19.3 kmh 29.69 in1005.4 mb - 0.00 in0.0 mm 0.24 in6.1 mm
03:30 PM 52.8°F11.6°C 28.5°F-1.9°C 39% 9.6 mph NW15.4 kmh NW 24.0 mph38.6 kmh 29.69 in1005.4 mb - 0.00 in0.0 mm 0.24 in6.1 mm
03:20 PM 52.8°F11.6°C 30.3°F-0.9°C 42% 7.2 mph WNW11.6 kmh WNW 22.0 mph35.4 kmh 29.68 in1005.1 mb - 0.00 in0.0 mm 0.24 in6.1 mm
03:10 PM 52.5°F11.4°C 31.2°F-0.4°C 44% 5.7 mph NW9.2 kmh NW 8.0 mph12.9 kmh 29.67 in1004.7 mb - 0.00 in0.0 mm 0.24 in6.1 mm
03:00 PM 52.2°F11.2°C 31.4°F-0.3°C 45% 6.4 mph NW10.3 kmh NW 9.0 mph14.5 kmh 29.67 in1004.7 mb - 0.00 in0.0 mm 0.24 in6.1 mm
02:50 PM 51.7°F10.9°C 33.6°F0.9°C 50% 8.8 mph WNW14.2 kmh WNW 16.0 mph25.7 kmh 29.67 in1004.7 mb - 0.00 in0.0 mm 0.24 in6.1 mm
02:40 PM 51.4°F10.8°C 34.8°F1.6°C 53% 4.3 mph WNW6.9 kmh WNW 9.0 mph14.5 kmh 29.66 in1004.4 mb - 0.00 in0.0 mm 0.24 in6.1 mm
02:30 PM 50.7°F10.4°C 34.7°F1.5°C 54% 6.7 mph NNW10.8 kmh NNW 11.0 mph17.7 kmh 29.66 in1004.4 mb - 0.00 in0.0 mm 0.24 in6.1 mm
02:20 PM 50.5°F10.3°C 35.8°F2.1°C 57% 6.7 mph NW10.8 kmh NW 18.0 mph29.0 kmh 29.65 in1004.1 mb - 0.00 in0.0 mm 0.24 in6.1 mm
02:10 PM 49.8°F9.9°C 36.5°F2.5°C 60% 5.6 mph NW9.0 kmh NW 20.0 mph32.2 kmh 29.65 in1004.1 mb - 0.00 in0.0 mm 0.24 in6.1 mm
02:00 PM 49.4°F9.7°C 37.8°F3.2°C 64% 7.8 mph NW12.6 kmh NW 9.0 mph14.5 kmh 29.64 in1003.7 mb - 0.00 in0.0 mm 0.24 in6.1 mm
01:50 PM 48.3°F9.1°C 38.6°F3.7°C 69% 6.3 mph NW10.1 kmh NW 10.0 mph16.1 kmh 29.63 in1003.4 mb - 0.00 in0.0 mm 0.24 in6.1 mm
01:40 PM 46.7°F8.2°C 39.5°F4.2°C 76% 4.5 mph W7.2 kmh W 12.0 mph19.3 kmh 29.64 in1003.7 mb - 0.00 in0.0 mm 0.24 in6.1 mm
01:30 PM 46.0°F7.8°C 38.9°F3.8°C 76% 4.5 mph NW7.2 kmh NW 14.0 mph22.5 kmh 29.63 in1003.4 mb - 0.00 in0.0 mm 0.24 in6.1 mm
01:20 PM 46.2°F7.9°C 39.0°F3.9°C 76% 9.0 mph NW14.5 kmh NW 30.0 mph48.3 kmh 29.62 in1003.0 mb - 0.00 in0.0 mm 0.24 in6.1 mm
01:10 PM 43.2°F6.2°C 38.1°F3.4°C 82% 7.8 mph NW12.6 kmh NW 10.0 mph16.1 kmh 29.61 in1002.7 mb - 0.00 in0.0 mm 0.24 in6.1 mm
01:00 PM 41.4°F5.2°C 37.6°F3.1°C 86% 3.9 mph NW6.3 kmh NW 6.0 mph9.7 kmh 29.60 in1002.4 mb - 0.00 in0.0 mm 0.24 in6.1 mm
12:50 PM 39.9°F4.4°C 36.3°F2.4°C 87% 2.9 mph W4.7 kmh W 4.0 mph6.4 kmh 29.60 in1002.4 mb - 0.00 in0.0 mm 0.24 in6.1 mm
12:40 PM 38.3°F3.5°C 34.5°F1.4°C 86% 4.7 mph WNW7.6 kmh WNW 9.0 mph14.5 kmh 29.59 in1002.0 mb - 0.00 in0.0 mm 0.24 in6.1 mm
12:30 PM 37.9°F3.3°C 34.1°F1.2°C 86% 1.0 mph WNW1.6 kmh WNW 3.0 mph4.8 kmh 29.59 in1002.0 mb - 0.00 in0.0 mm 0.24 in6.1 mm
12:20 PM 37.7°F3.2°C 33.6°F0.9°C 85% 4.4 mph WNW7.1 kmh WNW 9.0 mph14.5 kmh 29.59 in1002.0 mb - 0.01 in0.3 mm 0.24 in6.1 mm
12:10 PM 38.6°F3.7°C 33.5°F0.8°C 82% 6.3 mph NW10.1 kmh NW 14.0 mph22.5 kmh 29.58 in1001.7 mb - 0.04 in1.0 mm 0.23 in5.8 mm
12:00 PM 41.0°F5.0°C 36.3°F2.4°C 83% 6.7 mph NW10.8 kmh NW 12.0 mph19.3 kmh 29.56 in1001.0 mb - 0.02 in0.5 mm 0.19 in4.8 mm
11:50 AM 42.3°F5.7°C 37.2°F2.9°C 82% 7.7 mph NW12.4 kmh NW 16.0 mph25.7 kmh 29.54 in1000.3 mb - 0.02 in0.5 mm 0.17 in4.3 mm
11:40 AM 44.0°F6.7°C 38.9°F3.8°C 82% 11.5 mph NW18.5 kmh NW 17.0 mph27.4 kmh 29.52 in999.7 mb - 0.00 in0.0 mm 0.15 in3.8 mm
11:30 AM 44.9°F7.2°C 40.4°F4.7°C 84% 1.4 mph NW2.3 kmh NW 10.0 mph16.1 kmh 29.50 in999.0 mb - 0.02 in0.5 mm 0.15 in3.8 mm
11:20 AM 45.1°F7.3°C 39.9°F4.4°C 82% 7.5 mph WSW12.1 kmh WSW 12.0 mph19.3 kmh 29.49 in998.6 mb - 0.00 in0.0 mm 0.13 in3.3 mm
11:10 AM 44.6°F7.0°C 39.4°F4.1°C 82% 3.8 mph WSW6.1 kmh WSW 9.0 mph14.5 kmh 29.48 in998.3 mb - 0.00 in0.0 mm 0.13 in3.3 mm
11:00 AM 44.2°F6.8°C 38.4°F3.6°C 80% 4.2 mph WSW6.8 kmh WSW 7.0 mph11.3 kmh 29.48 in998.3 mb - 0.00 in0.0 mm 0.13 in3.3 mm
10:50 AM 43.8°F6.6°C 37.1°F2.8°C 77% 2.7 mph WSW4.3 kmh WSW 4.0 mph6.4 kmh 29.47 in998.0 mb - 0.00 in0.0 mm 0.13 in3.3 mm
10:40 AM 43.4°F6.3°C 36.7°F2.6°C 77% 4.6 mph SW7.4 kmh SW 7.0 mph11.3 kmh 29.47 in998.0 mb - 0.00 in0.0 mm 0.13 in3.3 mm
10:30 AM 42.9°F6.1°C 36.6°F2.6°C 78% 3.1 mph SW5.0 kmh SW 10.0 mph16.1 kmh 29.47 in998.0 mb - 0.00 in0.0 mm 0.13 in3.3 mm
10:20 AM 42.0°F5.6°C 35.9°F2.2°C 79% 4.5 mph SW7.2 kmh SW 6.0 mph9.7 kmh 29.47 in998.0 mb - 0.00 in0.0 mm 0.13 in3.3 mm
10:10 AM 41.2°F5.1°C 35.5°F1.9°C 80% 3.8 mph SW6.1 kmh SW 4.0 mph6.4 kmh 29.48 in998.3 mb - 0.00 in0.0 mm 0.13 in3.3 mm
10:00 AM 40.5°F4.7°C 34.2°F1.2°C 78% 2.6 mph WSW4.2 kmh WSW 5.0 mph8.0 kmh 29.48 in998.3 mb - 0.00 in0.0 mm 0.13 in3.3 mm
09:50 AM 40.1°F4.5°C 33.7°F0.9°C 78% 2.8 mph SSW4.5 kmh SSW 6.0 mph9.7 kmh 29.48 in998.3 mb - 0.00 in0.0 mm 0.13 in3.3 mm
09:40 AM 39.9°F4.4°C 33.6°F0.9°C 78% 1.6 mph SSW2.6 kmh SSW 3.0 mph4.8 kmh 29.49 in998.6 mb - 0.00 in0.0 mm 0.13 in3.3 mm
09:30 AM 39.7°F4.3°C 33.7°F0.9°C 79% 3.0 mph WSW4.8 kmh WSW 5.0 mph8.0 kmh 29.49 in998.6 mb - 0.00 in0.0 mm 0.13 in3.3 mm
09:20 AM 38.8°F3.8°C 32.8°F0.4°C 79% 2.4 mph S3.9 kmh S 6.0 mph9.7 kmh 29.50 in999.0 mb - 0.00 in0.0 mm 0.13 in3.3 mm
09:10 AM 38.3°F3.5°C 32.0°F0.0°C 78% 4.2 mph SSW6.8 kmh SSW 7.0 mph11.3 kmh 29.50 in999.0 mb - 0.00 in0.0 mm 0.13 in3.3 mm
09:00 AM 37.9°F3.3°C 31.7°F-0.2°C 78% 4.5 mph S7.2 kmh S 5.0 mph8.0 kmh 29.50 in999.0 mb - 0.00 in0.0 mm 0.13 in3.3 mm
08:50 AM 37.8°F3.2°C 31.9°F-0.1°C 79% 2.8 mph SW4.5 kmh SW 6.0 mph9.7 kmh 29.51 in999.3 mb - 0.00 in0.0 mm 0.13 in3.3 mm
08:40 AM 37.5°F3.1°C 31.3°F-0.4°C 78% 2.9 mph S4.7 kmh S 7.0 mph11.3 kmh 29.52 in999.7 mb - 0.00 in0.0 mm 0.13 in3.3 mm
08:30 AM 37.4°F3.0°C 31.2°F-0.4°C 78% 5.3 mph S8.5 kmh S 11.0 mph17.7 kmh 29.52 in999.7 mb - 0.00 in0.0 mm 0.13 in3.3 mm
08:20 AM 37.3°F2.9°C 31.1°F-0.5°C 78% 7.4 mph SSW11.9 kmh SSW 11.0 mph17.7 kmh 29.53 in1000.0 mb - 0.00 in0.0 mm 0.13 in3.3 mm
08:10 AM 37.2°F2.9°C 31.0°F-0.6°C 78% 3.4 mph S5.5 kmh S 5.0 mph8.0 kmh 29.53 in1000.0 mb - 0.00 in0.0 mm 0.13 in3.3 mm
08:00 AM 37.2°F2.9°C 30.9°F-0.6°C 78% 2.0 mph SSW3.2 kmh SSW 8.0 mph12.9 kmh 29.53 in1000.0 mb - 0.00 in0.0 mm 0.13 in3.3 mm
07:50 AM 37.0°F2.8°C 30.8°F-0.7°C 78% 4.5 mph S7.2 kmh S 6.0 mph9.7 kmh 29.54 in1000.3 mb - 0.00 in0.0 mm 0.13 in3.3 mm
07:40 AM 36.6°F2.6°C 31.0°F-0.6°C 80% 6.7 mph S10.8 kmh S 12.0 mph19.3 kmh 29.55 in1000.7 mb - 0.00 in0.0 mm 0.13 in3.3 mm
07:30 AM 35.7°F2.1°C 30.7°F-0.7°C 82% 5.2 mph SSE8.4 kmh SSE 8.0 mph12.9 kmh 29.56 in1001.0 mb - 0.00 in0.0 mm 0.13 in3.3 mm
07:20 AM 34.8°F1.6°C 30.2°F-1.0°C 83% 1.7 mph SSE2.7 kmh SSE 5.0 mph8.0 kmh 29.56 in1001.0 mb - 0.00 in0.0 mm 0.13 in3.3 mm
07:10 AM 34.4°F1.3°C 30.1°F-1.1°C 84% 1.6 mph SE2.6 kmh SE 3.0 mph4.8 kmh 29.57 in1001.4 mb - 0.00 in0.0 mm 0.13 in3.3 mm
07:00 AM 34.3°F1.3°C 30.0°F-1.1°C 84% 2.1 mph SSE3.4 kmh SSE 4.0 mph6.4 kmh 29.57 in1001.4 mb - 0.00 in0.0 mm 0.13 in3.3 mm
06:50 AM 34.4°F1.3°C 29.8°F-1.2°C 83% Calm Calm -- 29.57 in1001.4 mb - 0.00 in0.0 mm 0.13 in3.3 mm
06:40 AM 34.6°F1.4°C 30.0°F-1.1°C 83% 2.1 mph S3.4 kmh S 5.0 mph8.0 kmh 29.59 in1002.0 mb - 0.00 in0.0 mm 0.13 in3.3 mm
06:30 AM 34.7°F1.5°C 30.0°F-1.1°C 83% 0.6 mph SSE1.0 kmh SSE 5.0 mph8.0 kmh 29.59 in1002.0 mb - 0.00 in0.0 mm 0.13 in3.3 mm
06:20 AM 34.5°F1.4°C 29.9°F-1.2°C 83% 2.7 mph S4.3 kmh S 6.0 mph9.7 kmh 29.60 in1002.4 mb - 0.00 in0.0 mm 0.13 in3.3 mm
06:10 AM 34.5°F1.4°C 29.9°F-1.2°C 83% 1.4 mph S2.3 kmh S 4.0 mph6.4 kmh 29.60 in1002.4 mb - 0.00 in0.0 mm 0.13 in3.3 mm
06:00 AM 34.6°F1.4°C 30.0°F-1.1°C 83% 1.4 mph S2.3 kmh S 5.0 mph8.0 kmh 29.61 in1002.7 mb - 0.01 in0.3 mm 0.13 in3.3 mm
05:50 AM 34.7°F1.5°C 30.1°F-1.1°C 83% 2.7 mph S4.3 kmh S 7.0 mph11.3 kmh 29.62 in1003.0 mb - 0.01 in0.3 mm 0.13 in3.3 mm
05:40 AM 34.8°F1.6°C 30.2°F-1.0°C 83% 2.6 mph SSE4.2 kmh SSE 6.0 mph9.7 kmh 29.63 in1003.4 mb - 0.00 in0.0 mm 0.12 in3.0 mm
05:30 AM 34.9°F1.6°C 30.0°F-1.1°C 82% 2.0 mph S3.2 kmh S 5.0 mph8.0 kmh 29.63 in1003.4 mb - 0.00 in0.0 mm 0.12 in3.0 mm
05:20 AM 34.9°F1.6°C 30.3°F-0.9°C 83% 2.4 mph SSE3.9 kmh SSE 5.0 mph8.0 kmh 29.63 in1003.4 mb - 0.02 in0.5 mm 0.12 in3.0 mm
05:10 AM 35.1°F1.7°C 30.2°F-1.0°C 82% 2.4 mph SSE3.9 kmh SSE 7.0 mph11.3 kmh 29.65 in1004.1 mb - 0.01 in0.3 mm 0.10 in2.5 mm
05:00 AM 35.2°F1.8°C 29.9°F-1.2°C 81% 3.7 mph S6.0 kmh S 4.0 mph6.4 kmh 29.65 in1004.1 mb - 0.00 in0.0 mm 0.09 in2.3 mm
04:50 AM 35.2°F1.8°C 30.0°F-1.1°C 81% 2.1 mph SSE3.4 kmh SSE 4.0 mph6.4 kmh 29.64 in1003.7 mb - 0.00 in0.0 mm 0.09 in2.3 mm
04:40 AM 35.2°F1.8°C 30.0°F-1.1°C 81% 1.9 mph S3.1 kmh S 5.0 mph8.0 kmh 29.66 in1004.4 mb - 0.00 in0.0 mm 0.09 in2.3 mm
04:30 AM 35.2°F1.8°C 29.6°F-1.3°C 80% 2.1 mph SE3.4 kmh SE 4.0 mph6.4 kmh 29.67 in1004.7 mb - 0.02 in0.5 mm 0.09 in2.3 mm
04:20 AM 35.2°F1.8°C 29.3°F-1.5°C 79% 2.9 mph S4.7 kmh S 8.0 mph12.9 kmh 29.68 in1005.1 mb - 0.00 in0.0 mm 0.07 in1.8 mm
04:10 AM 35.2°F1.8°C 29.0°F-1.7°C 78% 1.6 mph S2.6 kmh S 6.0 mph9.7 kmh 29.70 in1005.8 mb - 0.02 in0.5 mm 0.07 in1.8 mm
04:00 AM 35.6°F2.0°C 28.1°F-2.2°C 74% 2.1 mph S3.4 kmh S 4.0 mph6.4 kmh 29.71 in1006.1 mb - 0.04 in1.0 mm 0.05 in1.3 mm
03:50 AM 36.9°F2.7°C 27.0°F-2.8°C 67% 4.8 mph S7.7 kmh S 8.0 mph12.9 kmh 29.73 in1006.8 mb - 0.01 in0.3 mm 0.01 in0.3 mm
03:40 AM 37.9°F3.3°C 24.4°F-4.2°C 58% 3.7 mph S6.0 kmh S 8.0 mph12.9 kmh 29.74 in1007.1 mb - 0.00 in0.0 mm 0.00 in0.0 mm
03:30 AM 37.8°F3.2°C 22.2°F-5.4°C 53% 5.0 mph S8.0 kmh S 8.0 mph12.9 kmh 29.73 in1006.8 mb - 0.00 in0.0 mm 0.00 in0.0 mm
03:20 AM 37.8°F3.2°C 22.2°F-5.4°C 53% 3.8 mph SE6.1 kmh SE 7.0 mph11.3 kmh 29.73 in1006.8 mb - 0.00 in0.0 mm 0.00 in0.0 mm
03:10 AM 37.7°F3.2°C 21.6°F-5.8°C 52% 3.4 mph S5.5 kmh S 7.0 mph11.3 kmh 29.75 in1007.5 mb - 0.00 in0.0 mm 0.00 in0.0 mm
03:00 AM 37.6°F3.1°C 21.1°F-6.1°C 51% 2.1 mph SSE3.4 kmh SSE 5.0 mph8.0 kmh 29.75 in1007.5 mb - 0.00 in0.0 mm 0.00 in0.0 mm
02:50 AM 37.5°F3.1°C 21.0°F-6.1°C 51% 4.5 mph S7.2 kmh S 9.0 mph14.5 kmh 29.75 in1007.5 mb - 0.00 in0.0 mm 0.00 in0.0 mm
02:40 AM 37.6°F3.1°C 20.6°F-6.3°C 50% 3.0 mph SSE4.8 kmh SSE 8.0 mph12.9 kmh 29.76 in1007.8 mb - 0.00 in0.0 mm 0.00 in0.0 mm
02:30 AM 37.7°F3.2°C 20.7°F-6.3°C 50% 4.4 mph S7.1 kmh S 10.0 mph16.1 kmh 29.77 in1008.1 mb - 0.00 in0.0 mm 0.00 in0.0 mm
02:20 AM 37.8°F3.2°C 20.3°F-6.5°C 49% 3.5 mph S5.6 kmh S 7.0 mph11.3 kmh 29.78 in1008.5 mb - 0.00 in0.0 mm 0.00 in0.0 mm
02:10 AM 37.6°F3.1°C 20.1°F-6.6°C 49% 4.3 mph S6.9 kmh S 7.0 mph11.3 kmh 29.78 in1008.5 mb - 0.00 in0.0 mm 0.00 in0.0 mm
02:00 AM 37.1°F2.8°C 19.7°F-6.8°C 49% 4.2 mph S6.8 kmh S 5.0 mph8.0 kmh 29.79 in1008.8 mb - 0.00 in0.0 mm 0.00 in0.0 mm
01:50 AM 36.4°F2.4°C 19.5°F-6.9°C 50% 1.6 mph SSE2.6 kmh SSE 4.0 mph6.4 kmh 29.79 in1008.8 mb - 0.00 in0.0 mm 0.00 in0.0 mm
01:40 AM 36.1°F2.3°C 19.7°F-6.8°C 51% 2.0 mph SSE3.2 kmh SSE 3.0 mph4.8 kmh 29.80 in1009.1 mb - 0.00 in0.0 mm 0.00 in0.0 mm
01:30 AM 36.1°F2.3°C 19.7°F-6.8°C 51% 2.2 mph SE3.5 kmh SE 8.0 mph12.9 kmh 29.80 in1009.1 mb - 0.00 in0.0 mm 0.00 in0.0 mm
01:20 AM 36.3°F2.4°C 19.4°F-7.0°C 50% 0.4 mph SSE0.6 kmh SSE 2.0 mph3.2 kmh 29.81 in1009.5 mb - 0.00 in0.0 mm 0.00 in0.0 mm
01:10 AM 36.3°F2.4°C 19.4°F-7.0°C 50% 2.1 mph SSE3.4 kmh SSE 4.0 mph6.4 kmh 29.82 in1009.8 mb - 0.00 in0.0 mm 0.00 in0.0 mm
01:00 AM 36.3°F2.4°C 19.4°F-7.0°C 50% 1.4 mph SSE2.3 kmh SSE 2.0 mph3.2 kmh 29.82 in1009.8 mb - 0.00 in0.0 mm 0.00 in0.0 mm
12:50 AM 36.4°F2.4°C 20.0°F-6.7°C 51% 1.4 mph SSE2.3 kmh SSE 6.0 mph9.7 kmh 29.82 in1009.8 mb - 0.00 in0.0 mm 0.00 in0.0 mm
12:40 AM 36.4°F2.4°C 19.5°F-6.9°C 50% 2.7 mph SSE4.3 kmh SSE 6.0 mph9.7 kmh 29.82 in1009.8 mb - 0.00 in0.0 mm 0.00 in0.0 mm
12:30 AM 36.6°F2.6°C 19.7°F-6.8°C 50% 1.4 mph SSE2.3 kmh SSE 2.0 mph3.2 kmh 29.83 in1010.2 mb - 0.00 in0.0 mm 0.00 in0.0 mm
12:20 AM 36.8°F2.7°C 19.9°F-6.7°C 50% 0.6 mph S1.0 kmh S 2.0 mph3.2 kmh 29.84 in1010.5 mb - 0.00 in0.0 mm 0.00 in0.0 mm
12:10 AM 37.0°F2.8°C 20.1°F-6.6°C 50% 1.6 mph S2.6 kmh S 5.0 mph8.0 kmh 29.84 in1010.5 mb - 0.00 in0.0 mm 0.00 in0.0 mm
12:00 AM 37.0°F2.8°C 20.1°F-6.6°C 50% 1.7 mph SSE2.7 kmh SSE 7.0 mph11.3 kmh 29.84 in1010.5 mb - 0.00 in0.0 mm 0.00 in0.0 mm